sensor_id;sensor_type;location;lat;lon;timestamp;temperature;humidity
39401;DHT22;54391;50.000;7.360;2022-08-21T00:02:13;16.80;7.10
39401;DHT22;54391;50.000;7.360;2022-08-21T00:04:43;16.70;7.90
39401;DHT22;54391;50.000;7.360;2022-08-21T00:07:10;16.80;9.40
39401;DHT22;54391;50.000;7.360;2022-08-21T00:09:38;17.00;8.30
39401;DHT22;54391;50.000;7.360;2022-08-21T00:12:06;16.90;6.90
39401;DHT22;54391;50.000;7.360;2022-08-21T00:14:33;17.00;7.80
39401;DHT22;54391;50.000;7.360;2022-08-21T00:17:02;17.00;7.30
39401;DHT22;54391;50.000;7.360;2022-08-21T00:19:29;16.90;7.70
39401;DHT22;54391;50.000;7.360;2022-08-21T00:21:58;16.50;8.50
39401;DHT22;54391;50.000;7.360;2022-08-21T00:24:26;16.50;9.00
39401;DHT22;54391;50.000;7.360;2022-08-21T00:26:53;16.30;9.80
39401;DHT22;54391;50.000;7.360;2022-08-21T00:29:21;16.30;10.10
39401;DHT22;54391;50.000;7.360;2022-08-21T00:31:48;16.10;10.30
39401;DHT22;54391;50.000;7.360;2022-08-21T00:34:16;16.00;11.10
39401;DHT22;54391;50.000;7.360;2022-08-21T00:36:44;16.10;11.70
39401;DHT22;54391;50.000;7.360;2022-08-21T00:41:41;15.90;12.20
39401;DHT22;54391;50.000;7.360;2022-08-21T00:44:10;15.80;12.50
39401;DHT22;54391;50.000;7.360;2022-08-21T00:46:39;15.80;13.10
39401;DHT22;54391;50.000;7.360;2022-08-21T00:49:08;15.80;13.40
39401;DHT22;54391;50.000;7.360;2022-08-21T00:51:39;15.90;13.00
39401;DHT22;54391;50.000;7.360;2022-08-21T00:54:10;15.90;14.10
39401;DHT22;54391;50.000;7.360;2022-08-21T00:56:40;15.80;13.60
39401;DHT22;54391;50.000;7.360;2022-08-21T00:59:07;15.90;13.90
39401;DHT22;54391;50.000;7.360;2022-08-21T01:01:35;15.90;13.20
39401;DHT22;54391;50.000;7.360;2022-08-21T01:04:03;15.90;15.30
39401;DHT22;54391;50.000;7.360;2022-08-21T01:06:30;16.00;13.20
39401;DHT22;54391;50.000;7.360;2022-08-21T01:08:58;15.90;13.30
39401;DHT22;54391;50.000;7.360;2022-08-21T01:11:25;15.90;13.00
39401;DHT22;54391;50.000;7.360;2022-08-21T01:16:22;15.90;13.00
39401;DHT22;54391;50.000;7.360;2022-08-21T01:18:50;15.90;13.80
39401;DHT22;54391;50.000;7.360;2022-08-21T01:21:21;15.90;13.10
39401;DHT22;54391;50.000;7.360;2022-08-21T01:23:51;15.90;13.50
39401;DHT22;54391;50.000;7.360;2022-08-21T01:26:22;15.80;13.00
39401;DHT22;54391;50.000;7.360;2022-08-21T01:28:54;16.00;13.80
39401;DHT22;54391;50.000;7.360;2022-08-21T01:31:25;15.90;12.80
39401;DHT22;54391;50.000;7.360;2022-08-21T01:33:54;15.90;13.30
39401;DHT22;54391;50.000;7.360;2022-08-21T01:36:24;15.90;13.20
39401;DHT22;54391;50.000;7.360;2022-08-21T01:38:52;15.90;13.30
39401;DHT22;54391;50.000;7.360;2022-08-21T01:41:19;15.90;13.30
39401;DHT22;54391;50.000;7.360;2022-08-21T01:43:46;15.90;13.90
39401;DHT22;54391;50.000;7.360;2022-08-21T01:46:14;15.90;13.70
39401;DHT22;54391;50.000;7.360;2022-08-21T01:48:43;15.80;14.30
39401;DHT22;54391;50.000;7.360;2022-08-21T01:51:11;15.80;13.90
39401;DHT22;54391;50.000;7.360;2022-08-21T01:53:40;15.80;13.90
39401;DHT22;54391;50.000;7.360;2022-08-21T01:56:10;15.80;14.50
39401;DHT22;54391;50.000;7.360;2022-08-21T01:58:38;15.80;14.30
39401;DHT22;54391;50.000;7.360;2022-08-21T02:01:05;15.80;13.80
39401;DHT22;54391;50.000;7.360;2022-08-21T02:03:33;15.80;14.30
39401;DHT22;54391;50.000;7.360;2022-08-21T02:06:01;15.90;14.30
39401;DHT22;54391;50.000;7.360;2022-08-21T02:08:28;15.90;14.10
39401;DHT22;54391;50.000;7.360;2022-08-21T02:10:57;15.80;13.60
39401;DHT22;54391;50.000;7.360;2022-08-21T02:13:24;15.80;14.20
39401;DHT22;54391;50.000;7.360;2022-08-21T02:15:52;15.80;14.40
39401;DHT22;54391;50.000;7.360;2022-08-21T02:18:19;15.80;14.00
39401;DHT22;54391;50.000;7.360;2022-08-21T02:20:48;15.90;13.30
39401;DHT22;54391;50.000;7.360;2022-08-21T02:23:16;15.90;13.90
39401;DHT22;54391;50.000;7.360;2022-08-21T02:25:44;15.90;14.30
39401;DHT22;54391;50.000;7.360;2022-08-21T02:28:14;15.80;14.10
39401;DHT22;54391;50.000;7.360;2022-08-21T02:30:43;15.70;14.20
39401;DHT22;54391;50.000;7.360;2022-08-21T02:33:12;15.70;14.50
39401;DHT22;54391;50.000;7.360;2022-08-21T02:35:41;15.70;14.60
39401;DHT22;54391;50.000;7.360;2022-08-21T02:38:10;15.60;14.60
39401;DHT22;54391;50.000;7.360;2022-08-21T02:40:40;15.70;14.90
39401;DHT22;54391;50.000;7.360;2022-08-21T02:43:08;15.70;14.80
39401;DHT22;54391;50.000;7.360;2022-08-21T02:45:37;15.70;14.80
39401;DHT22;54391;50.000;7.360;2022-08-21T02:48:08;15.60;14.80
39401;DHT22;54391;50.000;7.360;2022-08-21T02:50:37;15.50;15.70
39401;DHT22;54391;50.000;7.360;2022-08-21T02:53:05;15.40;16.50
39401;DHT22;54391;50.000;7.360;2022-08-21T02:55:34;15.20;17.90
39401;DHT22;54391;50.000;7.360;2022-08-21T02:58:03;15.10;19.50
39401;DHT22;54391;50.000;7.360;2022-08-21T03:00:32;15.10;19.70
39401;DHT22;54391;50.000;7.360;2022-08-21T03:03:00;15.10;20.10
39401;DHT22;54391;50.000;7.360;2022-08-21T03:05:31;15.10;19.90
39401;DHT22;54391;50.000;7.360;2022-08-21T03:07:59;15.10;19.70
39401;DHT22;54391;50.000;7.360;2022-08-21T03:10:28;15.30;18.70
39401;DHT22;54391;50.000;7.360;2022-08-21T03:12:56;15.30;19.30
39401;DHT22;54391;50.000;7.360;2022-08-21T03:15:24;15.10;19.50
39401;DHT22;54391;50.000;7.360;2022-08-21T03:17:52;15.20;19.50
39401;DHT22;54391;50.000;7.360;2022-08-21T03:20:24;15.20;18.90
39401;DHT22;54391;50.000;7.360;2022-08-21T03:22:53;15.00;19.00
39401;DHT22;54391;50.000;7.360;2022-08-21T03:25:21;15.10;19.60
39401;DHT22;54391;50.000;7.360;2022-08-21T03:27:49;15.10;20.00
39401;DHT22;54391;50.000;7.360;2022-08-21T03:30:17;15.20;19.00
39401;DHT22;54391;50.000;7.360;2022-08-21T03:32:45;15.20;19.40
39401;DHT22;54391;50.000;7.360;2022-08-21T03:35:13;15.30;18.70
39401;DHT22;54391;50.000;7.360;2022-08-21T03:37:42;15.30;19.10
39401;DHT22;54391;50.000;7.360;2022-08-21T03:40:11;15.10;18.70
39401;DHT22;54391;50.000;7.360;2022-08-21T03:42:39;15.10;19.20
39401;DHT22;54391;50.000;7.360;2022-08-21T03:45:08;14.90;20.30
39401;DHT22;54391;50.000;7.360;2022-08-21T03:47:35;14.90;20.60
39401;DHT22;54391;50.000;7.360;2022-08-21T03:50:03;14.80;21.90
39401;DHT22;54391;50.000;7.360;2022-08-21T03:52:31;14.80;22.40
39401;DHT22;54391;50.000;7.360;2022-08-21T03:55:00;14.90;22.10
39401;DHT22;54391;50.000;7.360;2022-08-21T03:57:30;15.00;20.80
39401;DHT22;54391;50.000;7.360;2022-08-21T03:59:57;15.20;21.00
39401;DHT22;54391;50.000;7.360;2022-08-21T04:02:25;15.20;21.20
39401;DHT22;54391;50.000;7.360;2022-08-21T04:04:53;15.30;18.90
39401;DHT22;54391;50.000;7.360;2022-08-21T04:07:20;15.20;19.50
39401;DHT22;54391;50.000;7.360;2022-08-21T04:09:47;15.10;19.80
39401;DHT22;54391;50.000;7.360;2022-08-21T04:12:16;15.00;19.30
39401;DHT22;54391;50.000;7.360;2022-08-21T04:14:43;15.00;20.10
39401;DHT22;54391;50.000;7.360;2022-08-21T04:17:11;15.00;20.00
39401;DHT22;54391;50.000;7.360;2022-08-21T04:19:38;15.00;20.10
39401;DHT22;54391;50.000;7.360;2022-08-21T04:22:05;15.00;20.00
39401;DHT22;54391;50.000;7.360;2022-08-21T04:24:33;14.90;20.60
39401;DHT22;54391;50.000;7.360;2022-08-21T04:27:00;15.00;20.40
39401;DHT22;54391;50.000;7.360;2022-08-21T04:29:30;15.00;20.30
39401;DHT22;54391;50.000;7.360;2022-08-21T04:31:58;15.00;20.00
39401;DHT22;54391;50.000;7.360;2022-08-21T04:34:25;15.10;20.90
39401;DHT22;54391;50.000;7.360;2022-08-21T04:36:53;15.10;20.00
39401;DHT22;54391;50.000;7.360;2022-08-21T04:39:20;15.80;20.40
39401;DHT22;54391;50.000;7.360;2022-08-21T04:41:48;15.00;20.00
39401;DHT22;54391;50.000;7.360;2022-08-21T04:44:15;15.10;20.60
39401;DHT22;54391;50.000;7.360;2022-08-21T04:46:43;15.10;20.10
39401;DHT22;54391;50.000;7.360;2022-08-21T04:49:11;15.10;20.00
39401;DHT22;54391;50.000;7.360;2022-08-21T04:51:38;14.90;19.80
39401;DHT22;54391;50.000;7.360;2022-08-21T04:54:09;15.00;20.70
39401;DHT22;54391;50.000;7.360;2022-08-21T04:56:41;15.00;20.70
39401;DHT22;54391;50.000;7.360;2022-08-21T04:59:13;15.00;20.00
39401;DHT22;54391;50.000;7.360;2022-08-21T05:01:45;15.10;19.60
39401;DHT22;54391;50.000;7.360;2022-08-21T05:04:15;15.10;20.00
39401;DHT22;54391;50.000;7.360;2022-08-21T05:06:45;15.10;20.60
39401;DHT22;54391;50.000;7.360;2022-08-21T05:09:15;15.20;20.20
39401;DHT22;54391;50.000;7.360;2022-08-21T05:11:43;15.30;19.60
39401;DHT22;54391;50.000;7.360;2022-08-21T05:14:11;15.30;19.90
39401;DHT22;54391;50.000;7.360;2022-08-21T05:16:38;15.50;19.60
39401;DHT22;54391;50.000;7.360;2022-08-21T05:19:09;15.50;18.50
39401;DHT22;54391;50.000;7.360;2022-08-21T05:21:42;15.50;18.40
39401;DHT22;54391;50.000;7.360;2022-08-21T05:24:11;15.50;19.10
39401;DHT22;54391;50.000;7.360;2022-08-21T05:26:38;15.70;18.80
39401;DHT22;54391;50.000;7.360;2022-08-21T05:29:06;15.70;18.80
39401;DHT22;54391;50.000;7.360;2022-08-21T05:31:34;15.80;17.50
39401;DHT22;54391;50.000;7.360;2022-08-21T05:34:01;15.90;17.50
39401;DHT22;54391;50.000;7.360;2022-08-21T05:36:30;16.00;17.50
39401;DHT22;54391;50.000;7.360;2022-08-21T05:38:57;16.20;16.40
39401;DHT22;54391;50.000;7.360;2022-08-21T05:41:25;16.00;16.20
39401;DHT22;54391;50.000;7.360;2022-08-21T05:43:52;16.00;17.20
39401;DHT22;54391;50.000;7.360;2022-08-21T05:46:19;16.00;16.90
39401;DHT22;54391;50.000;7.360;2022-08-21T05:48:47;15.90;17.40
39401;DHT22;54391;50.000;7.360;2022-08-21T05:51:15;16.00;16.90
39401;DHT22;54391;50.000;7.360;2022-08-21T05:53:45;16.00;16.80
39401;DHT22;54391;50.000;7.360;2022-08-21T05:56:14;16.00;16.40
39401;DHT22;54391;50.000;7.360;2022-08-21T06:01:09;16.90;13.40
39401;DHT22;54391;50.000;7.360;2022-08-21T06:03:39;17.20;12.30
39401;DHT22;54391;50.000;7.360;2022-08-21T06:06:06;18.00;9.50
39401;DHT22;54391;50.000;7.360;2022-08-21T06:08:35;18.80;7.30
39401;DHT22;54391;50.000;7.360;2022-08-21T06:11:04;20.00;1.70
39401;DHT22;54391;50.000;7.360;2022-08-21T06:13:32;20.50;1.40
39401;DHT22;54391;50.000;7.360;2022-08-21T06:16:02;21.50;1.00
39401;DHT22;54391;50.000;7.360;2022-08-21T06:18:30;22.30;1.00
39401;DHT22;54391;50.000;7.360;2022-08-21T06:20:58;22.80;1.00
39401;DHT22;54391;50.000;7.360;2022-08-21T06:23:25;23.10;1.00
39401;DHT22;54391;50.000;7.360;2022-08-21T06:25:53;22.50;1.00
39401;DHT22;54391;50.000;7.360;2022-08-21T06:28:21;22.60;1.00
39401;DHT22;54391;50.000;7.360;2022-08-21T06:30:49;23.20;1.00
39401;DHT22;54391;50.000;7.360;2022-08-21T06:33:16;23.50;1.00
39401;DHT22;54391;50.000;7.360;2022-08-21T06:35:44;23.80;1.00
39401;DHT22;54391;50.000;7.360;2022-08-21T06:38:11;24.30;1.00
39401;DHT22;54391;50.000;7.360;2022-08-21T06:40:39;25.00;1.00
39401;DHT22;54391;50.000;7.360;2022-08-21T06:43:08;25.00;1.00
39401;DHT22;54391;50.000;7.360;2022-08-21T06:45:37;24.90;1.00
39401;DHT22;54391;50.000;7.360;2022-08-21T06:48:05;25.20;1.00
39401;DHT22;54391;50.000;7.360;2022-08-21T06:50:34;25.40;1.00
39401;DHT22;54391;50.000;7.360;2022-08-21T06:53:04;25.50;1.00
39401;DHT22;54391;50.000;7.360;2022-08-21T06:55:32;25.20;1.00
39401;DHT22;54391;50.000;7.360;2022-08-21T06:58:00;25.20;1.00
39401;DHT22;54391;50.000;7.360;2022-08-21T07:00:31;25.30;1.00
39401;DHT22;54391;50.000;7.360;2022-08-21T07:03:00;25.40;1.00
39401;DHT22;54391;50.000;7.360;2022-08-21T07:05:30;25.50;1.00
39401;DHT22;54391;50.000;7.360;2022-08-21T07:07:57;25.90;1.00
39401;DHT22;54391;50.000;7.360;2022-08-21T07:10:26;25.40;1.00
39401;DHT22;54391;50.000;7.360;2022-08-21T07:12:54;25.40;1.00
39401;DHT22;54391;50.000;7.360;2022-08-21T07:15:21;25.70;1.00
39401;DHT22;54391;50.000;7.360;2022-08-21T07:17:49;26.10;1.00
39401;DHT22;54391;50.000;7.360;2022-08-21T07:20:18;26.30;1.00
39401;DHT22;54391;50.000;7.360;2022-08-21T07:22:45;26.40;1.00
39401;DHT22;54391;50.000;7.360;2022-08-21T07:25:12;26.40;1.00
39401;DHT22;54391;50.000;7.360;2022-08-21T07:27:40;26.40;1.00
39401;DHT22;54391;50.000;7.360;2022-08-21T07:30:08;26.50;1.00
39401;DHT22;54391;50.000;7.360;2022-08-21T07:32:35;26.40;1.00
39401;DHT22;54391;50.000;7.360;2022-08-21T07:35:03;26.80;1.00
39401;DHT22;54391;50.000;7.360;2022-08-21T07:37:32;26.60;1.00
39401;DHT22;54391;50.000;7.360;2022-08-21T07:40:00;26.60;1.00
39401;DHT22;54391;50.000;7.360;2022-08-21T07:42:27;26.60;1.00
39401;DHT22;54391;50.000;7.360;2022-08-21T07:44:55;26.70;1.00
39401;DHT22;54391;50.000;7.360;2022-08-21T07:47:22;26.50;1.00
39401;DHT22;54391;50.000;7.360;2022-08-21T07:49:49;26.70;1.00
39401;DHT22;54391;50.000;7.360;2022-08-21T07:52:17;26.90;1.00
39401;DHT22;54391;50.000;7.360;2022-08-21T07:54:47;26.80;1.00
39401;DHT22;54391;50.000;7.360;2022-08-21T07:57:14;26.70;1.00
39401;DHT22;54391;50.000;7.360;2022-08-21T08:02:09;26.40;1.00
39401;DHT22;54391;50.000;7.360;2022-08-21T08:04:36;27.20;1.00
39401;DHT22;54391;50.000;7.360;2022-08-21T08:07:03;27.90;1.00
39401;DHT22;54391;50.000;7.360;2022-08-21T08:09:31;28.10;1.00
39401;DHT22;54391;50.000;7.360;2022-08-21T08:12:00;28.40;1.00
39401;DHT22;54391;50.000;7.360;2022-08-21T08:14:30;28.00;1.00
39401;DHT22;54391;50.000;7.360;2022-08-21T08:19:25;28.00;1.00
39401;DHT22;54391;50.000;7.360;2022-08-21T08:21:53;26.60;1.00
39401;DHT22;54391;50.000;7.360;2022-08-21T08:24:20;25.80;1.00
39401;DHT22;54391;50.000;7.360;2022-08-21T08:26:47;26.80;1.00
39401;DHT22;54391;50.000;7.360;2022-08-21T08:29:16;27.20;1.00
39401;DHT22;54391;50.000;7.360;2022-08-21T08:31:43;27.60;1.00
39401;DHT22;54391;50.000;7.360;2022-08-21T08:34:11;27.50;1.00
39401;DHT22;54391;50.000;7.360;2022-08-21T08:36:38;27.30;1.00
39401;DHT22;54391;50.000;7.360;2022-08-21T08:39:06;27.20;1.00
39401;DHT22;54391;50.000;7.360;2022-08-21T08:41:33;27.40;1.00
39401;DHT22;54391;50.000;7.360;2022-08-21T08:44:04;27.50;1.00
39401;DHT22;54391;50.000;7.360;2022-08-21T08:46:38;28.10;1.00
39401;DHT22;54391;50.000;7.360;2022-08-21T08:49:09;28.30;1.00
39401;DHT22;54391;50.000;7.360;2022-08-21T08:51:43;28.50;1.00
39401;DHT22;54391;50.000;7.360;2022-08-21T08:54:15;28.70;1.00
39401;DHT22;54391;50.000;7.360;2022-08-21T08:56:45;28.50;1.00
39401;DHT22;54391;50.000;7.360;2022-08-21T08:59:15;28.80;1.00
39401;DHT22;54391;50.000;7.360;2022-08-21T09:04:19;29.10;1.00
39401;DHT22;54391;50.000;7.360;2022-08-21T09:06:56;28.90;1.00
39401;DHT22;54391;50.000;7.360;2022-08-21T09:09:31;29.10;1.00
39401;DHT22;54391;50.000;7.360;2022-08-21T09:12:06;29.60;1.00
39401;DHT22;54391;50.000;7.360;2022-08-21T09:14:50;29.70;1.00
39401;DHT22;54391;50.000;7.360;2022-08-21T09:17:36;28.60;1.00
39401;DHT22;54391;50.000;7.360;2022-08-21T09:20:16;28.80;1.00
39401;DHT22;54391;50.000;7.360;2022-08-21T09:22:53;29.30;1.00
39401;DHT22;54391;50.000;7.360;2022-08-21T09:25:25;29.20;1.00
39401;DHT22;54391;50.000;7.360;2022-08-21T09:27:53;29.40;1.00
39401;DHT22;54391;50.000;7.360;2022-08-21T09:30:28;29.00;1.00
39401;DHT22;54391;50.000;7.360;2022-08-21T09:32:58;29.10;1.00
39401;DHT22;54391;50.000;7.360;2022-08-21T09:35:25;29.00;1.00
39401;DHT22;54391;50.000;7.360;2022-08-21T09:37:54;28.90;1.00
39401;DHT22;54391;50.000;7.360;2022-08-21T09:40:33;28.50;1.00
39401;DHT22;54391;50.000;7.360;2022-08-21T09:43:05;27.80;1.00
39401;DHT22;54391;50.000;7.360;2022-08-21T09:45:34;27.70;1.00
39401;DHT22;54391;50.000;7.360;2022-08-21T09:48:11;28.90;1.00
39401;DHT22;54391;50.000;7.360;2022-08-21T09:50:39;29.20;1.00
39401;DHT22;54391;50.000;7.360;2022-08-21T09:53:18;29.40;1.00
39401;DHT22;54391;50.000;7.360;2022-08-21T09:55:52;29.60;1.00
39401;DHT22;54391;50.000;7.360;2022-08-21T09:58:50;29.50;1.00
39401;DHT22;54391;50.000;7.360;2022-08-21T10:01:19;29.30;1.00
39401;DHT22;54391;50.000;7.360;2022-08-21T10:03:49;28.50;1.00
39401;DHT22;54391;50.000;7.360;2022-08-21T10:06:23;28.20;1.00
39401;DHT22;54391;50.000;7.360;2022-08-21T10:08:51;28.10;1.00
39401;DHT22;54391;50.000;7.360;2022-08-21T10:11:24;27.90;1.00
39401;DHT22;54391;50.000;7.360;2022-08-21T10:14:01;27.90;1.00
39401;DHT22;54391;50.000;7.360;2022-08-21T10:16:35;28.80;1.00
39401;DHT22;54391;50.000;7.360;2022-08-21T10:19:15;29.20;1.00
39401;DHT22;54391;50.000;7.360;2022-08-21T10:21:55;28.70;1.00
39401;DHT22;54391;50.000;7.360;2022-08-21T10:24:31;29.50;1.00
39401;DHT22;54391;50.000;7.360;2022-08-21T10:27:10;29.70;1.00
39401;DHT22;54391;50.000;7.360;2022-08-21T10:29:47;29.30;1.00
39401;DHT22;54391;50.000;7.360;2022-08-21T10:32:27;29.30;1.00
39401;DHT22;54391;50.000;7.360;2022-08-21T10:35:02;29.50;1.00
39401;DHT22;54391;50.000;7.360;2022-08-21T10:37:41;29.80;1.00
39401;DHT22;54391;50.000;7.360;2022-08-21T10:40:17;30.20;1.00
39401;DHT22;54391;50.000;7.360;2022-08-21T10:42:54;30.20;1.00
39401;DHT22;54391;50.000;7.360;2022-08-21T10:45:36;30.40;1.00
39401;DHT22;54391;50.000;7.360;2022-08-21T10:48:08;29.80;1.00
39401;DHT22;54391;50.000;7.360;2022-08-21T10:50:44;30.40;1.00
39401;DHT22;54391;50.000;7.360;2022-08-21T10:53:22;30.00;1.00
39401;DHT22;54391;50.000;7.360;2022-08-21T10:55:56;29.50;1.00
39401;DHT22;54391;50.000;7.360;2022-08-21T10:58:30;29.60;1.00
39401;DHT22;54391;50.000;7.360;2022-08-21T11:01:08;29.40;1.00
39401;DHT22;54391;50.000;7.360;2022-08-21T11:03:41;29.20;1.00
39401;DHT22;54391;50.000;7.360;2022-08-21T11:06:13;29.20;1.00
39401;DHT22;54391;50.000;7.360;2022-08-21T11:08:43;28.70;1.00
39401;DHT22;54391;50.000;7.360;2022-08-21T11:11:15;28.70;1.00
39401;DHT22;54391;50.000;7.360;2022-08-21T11:13:48;29.00;1.00
39401;DHT22;54391;50.000;7.360;2022-08-21T11:16:23;29.20;1.00
39401;DHT22;54391;50.000;7.360;2022-08-21T11:18:57;29.50;1.00
39401;DHT22;54391;50.000;7.360;2022-08-21T11:21:34;29.80;1.00
39401;DHT22;54391;50.000;7.360;2022-08-21T11:24:15;30.00;1.00
39401;DHT22;54391;50.000;7.360;2022-08-21T11:26:47;29.80;1.00
39401;DHT22;54391;50.000;7.360;2022-08-21T11:29:23;29.60;1.00
39401;DHT22;54391;50.000;7.360;2022-08-21T11:32:03;28.90;1.00
39401;DHT22;54391;50.000;7.360;2022-08-21T11:34:47;28.90;1.00
39401;DHT22;54391;50.000;7.360;2022-08-21T11:37:43;28.80;1.00
39401;DHT22;54391;50.000;7.360;2022-08-21T11:40:17;28.40;1.00
39401;DHT22;54391;50.000;7.360;2022-08-21T11:42:53;28.50;1.00
39401;DHT22;54391;50.000;7.360;2022-08-21T11:45:26;28.80;1.00
39401;DHT22;54391;50.000;7.360;2022-08-21T11:48:02;28.80;1.00
39401;DHT22;54391;50.000;7.360;2022-08-21T11:50:35;28.60;1.00
39401;DHT22;54391;50.000;7.360;2022-08-21T11:53:09;28.40;1.00
39401;DHT22;54391;50.000;7.360;2022-08-21T11:55:43;28.30;1.00
39401;DHT22;54391;50.000;7.360;2022-08-21T11:58:16;28.70;1.00
39401;DHT22;54391;50.000;7.360;2022-08-21T12:00:49;28.40;1.00
39401;DHT22;54391;50.000;7.360;2022-08-21T12:03:25;28.30;1.00
39401;DHT22;54391;50.000;7.360;2022-08-21T12:05:57;28.40;1.00
39401;DHT22;54391;50.000;7.360;2022-08-21T12:08:32;27.70;1.00
39401;DHT22;54391;50.000;7.360;2022-08-21T12:11:04;29.80;1.00
39401;DHT22;54391;50.000;7.360;2022-08-21T12:13:33;27.50;1.00
39401;DHT22;54391;50.000;7.360;2022-08-21T12:16:09;27.50;1.00
39401;DHT22;54391;50.000;7.360;2022-08-21T12:21:19;27.70;1.00
39401;DHT22;54391;50.000;7.360;2022-08-21T12:23:59;27.70;1.00
39401;DHT22;54391;50.000;7.360;2022-08-21T12:26:29;26.80;1.00
39401;DHT22;54391;50.000;7.360;2022-08-21T12:29:07;26.00;1.00
39401;DHT22;54391;50.000;7.360;2022-08-21T12:31:48;25.90;1.00
39401;DHT22;54391;50.000;7.360;2022-08-21T12:34:16;26.30;1.00
39401;DHT22;54391;50.000;7.360;2022-08-21T12:36:49;26.90;1.00
39401;DHT22;54391;50.000;7.360;2022-08-21T12:39:24;27.60;1.00
39401;DHT22;54391;50.000;7.360;2022-08-21T12:41:58;27.50;1.00
39401;DHT22;54391;50.000;7.360;2022-08-21T12:44:34;27.50;1.00
39401;DHT22;54391;50.000;7.360;2022-08-21T12:47:05;27.60;1.00
39401;DHT22;54391;50.000;7.360;2022-08-21T12:49:35;26.80;1.00
39401;DHT22;54391;50.000;7.360;2022-08-21T12:52:09;26.50;1.00
39401;DHT22;54391;50.000;7.360;2022-08-21T12:54:43;26.20;1.00
39401;DHT22;54391;50.000;7.360;2022-08-21T12:57:19;26.90;1.00
39401;DHT22;54391;50.000;7.360;2022-08-21T12:59:52;27.10;1.00
39401;DHT22;54391;50.000;7.360;2022-08-21T13:02:22;26.90;1.00
39401;DHT22;54391;50.000;7.360;2022-08-21T13:04:51;27.20;1.00
39401;DHT22;54391;50.000;7.360;2022-08-21T13:07:25;27.50;1.00
39401;DHT22;54391;50.000;7.360;2022-08-21T13:09:58;27.30;1.00
39401;DHT22;54391;50.000;7.360;2022-08-21T13:12:29;27.50;1.00
39401;DHT22;54391;50.000;7.360;2022-08-21T13:15:00;27.50;1.00
39401;DHT22;54391;50.000;7.360;2022-08-21T13:17:31;27.30;1.00
39401;DHT22;54391;50.000;7.360;2022-08-21T13:20:05;27.30;1.00
39401;DHT22;54391;50.000;7.360;2022-08-21T13:22:39;27.30;1.00
39401;DHT22;54391;50.000;7.360;2022-08-21T13:25:11;27.50;1.00
39401;DHT22;54391;50.000;7.360;2022-08-21T13:27:39;27.20;1.00
39401;DHT22;54391;50.000;7.360;2022-08-21T13:30:10;27.40;1.00
39401;DHT22;54391;50.000;7.360;2022-08-21T13:32:41;27.40;1.00
39401;DHT22;54391;50.000;7.360;2022-08-21T13:35:16;26.70;1.00
39401;DHT22;54391;50.000;7.360;2022-08-21T13:37:46;26.90;1.00
39401;DHT22;54391;50.000;7.360;2022-08-21T13:40:18;27.00;1.00
39401;DHT22;54391;50.000;7.360;2022-08-21T13:42:47;26.90;1.00
39401;DHT22;54391;50.000;7.360;2022-08-21T13:45:21;26.80;1.00
39401;DHT22;54391;50.000;7.360;2022-08-21T13:47:50;27.00;1.00
39401;DHT22;54391;50.000;7.360;2022-08-21T13:50:21;27.00;1.00
39401;DHT22;54391;50.000;7.360;2022-08-21T13:52:59;27.00;1.00
39401;DHT22;54391;50.000;7.360;2022-08-21T13:55:39;27.00;1.00
39401;DHT22;54391;50.000;7.360;2022-08-21T13:58:08;27.00;1.00
39401;DHT22;54391;50.000;7.360;2022-08-21T14:00:44;26.90;1.00
39401;DHT22;54391;50.000;7.360;2022-08-21T14:03:26;26.90;1.00
39401;DHT22;54391;50.000;7.360;2022-08-21T14:05:54;26.60;1.00
39401;DHT22;54391;50.000;7.360;2022-08-21T14:08:26;26.50;1.00
39401;DHT22;54391;50.000;7.360;2022-08-21T14:10:57;26.70;1.00
39401;DHT22;54391;50.000;7.360;2022-08-21T14:13:35;26.80;1.00
39401;DHT22;54391;50.000;7.360;2022-08-21T14:16:11;26.80;1.00
39401;DHT22;54391;50.000;7.360;2022-08-21T14:18:52;26.70;1.00
39401;DHT22;54391;50.000;7.360;2022-08-21T14:21:28;26.60;1.00
39401;DHT22;54391;50.000;7.360;2022-08-21T14:24:08;26.80;1.00
39401;DHT22;54391;50.000;7.360;2022-08-21T14:26:46;26.90;1.00
39401;DHT22;54391;50.000;7.360;2022-08-21T14:29:17;26.90;1.00
39401;DHT22;54391;50.000;7.360;2022-08-21T14:31:50;26.80;1.00
39401;DHT22;54391;50.000;7.360;2022-08-21T14:34:18;26.70;1.00
39401;DHT22;54391;50.000;7.360;2022-08-21T14:36:46;26.80;1.00
39401;DHT22;54391;50.000;7.360;2022-08-21T14:39:13;26.70;1.00
39401;DHT22;54391;50.000;7.360;2022-08-21T14:41:42;26.40;1.00
39401;DHT22;54391;50.000;7.360;2022-08-21T14:44:11;26.50;1.00
39401;DHT22;54391;50.000;7.360;2022-08-21T14:46:39;26.70;1.00
39401;DHT22;54391;50.000;7.360;2022-08-21T14:49:07;26.70;1.00
39401;DHT22;54391;50.000;7.360;2022-08-21T14:54:02;26.80;1.00
39401;DHT22;54391;50.000;7.360;2022-08-21T14:56:30;26.80;1.00
39401;DHT22;54391;50.000;7.360;2022-08-21T14:59:03;26.70;1.00
39401;DHT22;54391;50.000;7.360;2022-08-21T15:01:32;26.10;1.00
39401;DHT22;54391;50.000;7.360;2022-08-21T15:04:01;26.30;1.00
39401;DHT22;54391;50.000;7.360;2022-08-21T15:06:29;26.30;1.00
39401;DHT22;54391;50.000;7.360;2022-08-21T15:08:56;26.40;1.00
39401;DHT22;54391;50.000;7.360;2022-08-21T15:11:24;26.30;1.00
39401;DHT22;54391;50.000;7.360;2022-08-21T15:13:54;26.30;1.00
39401;DHT22;54391;50.000;7.360;2022-08-21T15:18:51;25.80;1.00
39401;DHT22;54391;50.000;7.360;2022-08-21T15:21:19;26.10;1.00
39401;DHT22;54391;50.000;7.360;2022-08-21T15:23:46;26.20;1.00
39401;DHT22;54391;50.000;7.360;2022-08-21T15:26:13;26.30;1.00
39401;DHT22;54391;50.000;7.360;2022-08-21T15:28:41;26.30;1.00
39401;DHT22;54391;50.000;7.360;2022-08-21T15:31:08;26.40;1.00
39401;DHT22;54391;50.000;7.360;2022-08-21T15:33:37;26.40;1.00
39401;DHT22;54391;50.000;7.360;2022-08-21T15:36:05;26.40;1.00
39401;DHT22;54391;50.000;7.360;2022-08-21T15:38:32;26.20;1.00
39401;DHT22;54391;50.000;7.360;2022-08-21T15:41:02;26.20;1.00
39401;DHT22;54391;50.000;7.360;2022-08-21T15:43:31;26.00;1.00
39401;DHT22;54391;50.000;7.360;2022-08-21T15:46:00;26.00;1.00
39401;DHT22;54391;50.000;7.360;2022-08-21T15:48:29;26.00;1.00
39401;DHT22;54391;50.000;7.360;2022-08-21T15:50:57;26.00;1.00
39401;DHT22;54391;50.000;7.360;2022-08-21T15:53:25;25.90;1.00
39401;DHT22;54391;50.000;7.360;2022-08-21T15:55:53;25.90;1.00
39401;DHT22;54391;50.000;7.360;2022-08-21T15:58:21;25.90;1.00
39401;DHT22;54391;50.000;7.360;2022-08-21T16:00:49;25.80;1.00
39401;DHT22;54391;50.000;7.360;2022-08-21T16:03:17;25.80;1.00
39401;DHT22;54391;50.000;7.360;2022-08-21T16:05:47;25.80;1.00
39401;DHT22;54391;50.000;7.360;2022-08-21T16:08:20;25.80;1.00
39401;DHT22;54391;50.000;7.360;2022-08-21T16:10:47;25.60;1.00
39401;DHT22;54391;50.000;7.360;2022-08-21T16:13:18;25.60;1.00
39401;DHT22;54391;50.000;7.360;2022-08-21T16:15:48;25.60;1.00
39401;DHT22;54391;50.000;7.360;2022-08-21T16:18:16;25.60;1.00
39401;DHT22;54391;50.000;7.360;2022-08-21T16:20:44;25.60;1.00
39401;DHT22;54391;50.000;7.360;2022-08-21T16:23:11;25.60;1.00